Latest Weather Observations for Cairns

IDQ60801

Issued at 11:35 pm EST Thursday 30 October 2014 (issued every 30 minutes, with the page automatically refreshed every 10 minutes)

About weather observations | Map of weather stations | Latest weather observations for QLD | Other Formats
Station Details ID: 031011 Name: CAIRNS AERO Lat: -16.87 Lon: 145.75 Height: 2.22 m
Data from the previous 72 hours. | See also: Recent months at Cairns
Date/Time
EST
Temp
°C
App
Temp
°C
Dew
Point
Rel
Hum
%
Delta-T
°C
Wind Press
QNH
hPa
Press
MSL
hPa
Rain
since 9 am
mm
Dir
 
Spd
km/h
Gust
km/h
Spd
kts
Gust
kts
30/11:30pm 23.0 25.2 19.6 81 2.2 SSE 7 13 4 7 1014.1 - 0.0
30/11:00pm 23.4 24.9 19.7 80 2.4 S 11 15 6 8 1014.3 - 0.0
30/10:30pm 23.6 25.4 19.5 78 2.6 S 9 15 5 8 1014.3 - 0.0
30/10:00pm 23.6 24.6 19.5 78 2.6 S 13 19 7 10 1014.3 - 0.0
30/09:30pm 23.5 25.2 19.4 78 2.6 S 9 15 5 8 1014.1 - 0.0
30/09:00pm 23.8 25.3 19.8 78 2.6 SSE 11 13 6 7 1013.7 1013.6 0.0
30/08:30pm 23.9 25.8 19.7 77 2.7 S 9 15 5 8 1013.4 - 0.0
30/08:00pm 24.5 25.5 19.5 73 3.2 SE 13 17 7 9 1013.1 - 0.0
30/07:30pm 24.3 25.5 19.1 73 3.3 S 11 17 6 9 1012.7 - 0.0
30/07:00pm 25.4 26.9 18.8 67 4.2 S 9 17 5 9 1012.4 - 0.0
30/06:30pm 25.9 25.6 18.3 63 4.8 SE 17 20 9 11 1011.8 - 0.0
30/06:00pm 26.5 25.8 18.3 60 5.2 ENE 19 26 10 14 1011.4 1011.3 0.0
30/05:30pm 27.3 26.9 18.0 56 5.9 ENE 17 26 9 14 1011.2 - 0.0
30/05:00pm 27.8 27.4 18.8 58 5.8 ENE 19 26 10 14 1011.0 - 0.0
30/04:30pm 28.1 27.7 19.3 58 5.7 NE 20 28 11 15 1011.1 - 0.0
30/04:00pm 28.2 27.3 19.1 57 5.9 NE 22 28 12 15 1011.1 - 0.0
30/03:30pm 29.0 27.0 18.4 52 6.8 ENE 26 32 14 17 1011.1 - 0.0
30/03:00pm 29.6 27.1 18.0 49 7.4 NE 28 35 15 19 1011.3 1011.2 0.0
30/02:30pm 29.4 27.3 18.0 50 7.3 NE 26 32 14 17 1011.6 - 0.0
30/02:00pm 29.6 28.3 19.1 53 6.8 NE 24 32 13 17 1011.9 - 0.0
30/01:30pm 30.3 27.9 18.3 48 7.7 NE 28 33 15 18 1012.3 - 0.0
30/01:00pm 30.2 28.3 17.6 46 8.0 ENE 24 30 13 16 1012.6 - 0.0
30/12:30pm 30.3 28.8 16.8 44 8.5 E 20 32 11 17 1013.2 - 0.0
30/12:00pm 30.0 28.6 17.9 48 7.7 ENE 22 30 12 16 1013.9 1013.8 0.0
30/11:30am 29.5 28.2 16.7 46 8.0 E 19 26 10 14 1014.2 - 0.0
30/11:00am 29.7 28.5 17.0 46 8.0 ESE 19 28 10 15 1014.5 - 0.0
30/10:30am 29.2 28.4 17.1 48 7.6 ESE 17 32 9 17 1015.1 - 0.0
30/10:00am 28.5 27.9 18.9 56 6.2 ESE 20 28 11 15 1015.3 - 0.0
30/09:30am 27.0 26.8 18.5 59 5.4 SE 17 26 9 14 1015.5 - 0.0
30/09:00am 26.5 27.2 18.8 62 4.9 SSE 13 19 7 10 1015.6 1015.5 0.0
30/08:30am 26.5 27.2 18.8 62 4.9 SE 13 19 7 10 1015.2 - 0.0
30/08:00am 25.7 26.4 18.8 65 4.4 SE 13 17 7 9 1014.5 - 0.0
30/07:30am 24.4 24.3 18.7 70 3.6 SE 17 19 9 10 1014.2 - 0.0
30/07:00am 22.4 25.8 19.4 83 1.9 CALM 0 0 0 0 1014.0 - 0.0
30/06:30am 20.9 23.4 19.0 89 1.2 WNW 4 7 2 4 1013.8 - 0.0
30/06:00am 19.9 22.5 18.5 92 0.9 W 2 7 1 4 1013.6 1013.5 0.0
30/05:30am 21.5 21.7 18.5 83 1.9 SSE 15 19 8 10 1013.2 - 0.0
30/05:00am 21.2 21.0 18.5 84 1.7 SSE 17 22 9 12 1012.9 - 0.0
30/04:30am 19.8 21.9 19.0 95 0.5 W 6 9 3 5 1012.6 - 0.0
30/04:00am 19.7 22.7 19.2 97 0.3 NW 2 9 1 5 1012.4 - 0.0
30/03:30am 19.7 23.1 19.4 98 0.2 CALM 0 0 0 0 1012.3 - 0.0
30/03:00am 19.8 23.2 19.3 97 0.3 CALM 0 0 0 0 1012.4 1012.3 0.0
30/02:30am 20.4 23.9 19.6 95 0.5 CALM 0 0 0 0 1012.5 - 0.0
30/02:00am 20.2 23.5 19.2 94 0.6 CALM 0 0 0 0 1013.0 - 0.0
30/01:30am 20.4 23.9 19.5 95 0.6 CALM 0 0 0 0 1013.1 - 0.0
30/01:00am 20.3 23.4 19.5 95 0.5 SSE 2 6 1 3 1013.4 - 0.0
30/12:30am 20.7 24.3 19.8 95 0.6 CALM 0 0 0 0 1013.7 - 0.0
30/12:00am 21.2 24.8 19.8 92 0.9 S 0 0 0 0 1013.8 1013.7 0.0
 
Date/Time
EST
Temp
°C
App
Temp
°C
Dew
Point
Rel
Hum
%
Delta-T
°C
Wind Press
QNH
hPa
Press
MSL
hPa
Rain
since 9 am
mm
Dir
 
Spd
km/h
Gust
km/h
Spd
kts
Gust
kts
29/11:30pm 21.3 23.7 19.6 90 1.1 SSE 6 7 3 4 1014.0 - 0.0
29/11:00pm 22.0 23.8 19.6 86 1.5 SSE 9 11 5 6 1014.2 - 0.0
29/10:30pm 21.9 23.7 19.5 86 1.5 SSE 9 9 5 5 1014.5 - 0.0
29/10:00pm 22.3 24.9 20.0 87 1.5 SSE 6 7 3 4 1014.1 - 0.0
29/09:30pm 22.4 26.2 20.2 87 1.4 CALM 0 0 0 0 1014.0 - 0.0
29/09:00pm 22.5 25.8 20.0 86 1.6 WSW 2 7 1 4 1013.6 1013.5 0.0
29/08:30pm 23.1 25.6 19.8 82 2.1 ENE 6 7 3 4 1013.5 - 0.0
29/08:00pm 24.0 26.4 20.0 78 2.6 ENE 7 9 4 5 1013.4 - 0.0
29/07:30pm 24.1 26.7 20.1 78 2.6 NE 6 9 3 5 1013.3 - 0.0
29/07:00pm 23.4 25.9 19.8 80 2.3 NNE 6 7 3 4 1013.4 - 0.0
29/06:30pm 24.7 26.4 19.4 72 3.4 NNE 9 11 5 6 1013.1 - 0.0
29/04:30pm 26.8 27.8 19.5 64 4.7 N 13 17 7 9 1012.2 - 0.0
29/04:00pm 26.8 27.9 19.7 65 4.6 NNE 13 19 7 10 1012.1 - 0.0
29/03:30pm 26.9 28.0 19.7 64 4.7 NNE 13 19 7 10 1012.2 - 0.0
29/03:00pm 27.8 28.4 19.5 60 5.4 NNE 15 20 8 11 1012.4 1012.3 0.0
29/02:30pm 28.1 28.6 19.3 58 5.7 NNE 15 22 8 12 1012.7 - 0.0
29/02:00pm 28.1 28.5 19.1 58 5.8 NNE 15 26 8 14 1013.0 - 0.0
29/01:30pm 28.8 28.3 18.7 54 6.5 N 19 26 10 14 1013.1 - 0.0
29/01:00pm 27.5 26.9 18.8 59 5.6 NE 20 26 11 14 1013.4 - 0.0
29/12:30pm 27.8 27.1 18.6 57 5.9 NE 20 26 11 14 1013.7 - 0.0
29/12:00pm 27.8 27.2 18.4 56 6.0 NE 19 26 10 14 1014.1 1014.0 0.0
29/11:30am 27.7 27.2 18.6 57 5.8 NE 19 28 10 15 1014.6 - 0.0
29/11:00am 27.4 27.3 18.8 59 5.5 NE 17 26 9 14 1015.0 - 0.0
29/10:30am 27.5 27.4 17.9 55 6.1 NE 15 19 8 10 1015.0 - 0.0
29/10:00am 27.0 27.6 17.8 57 5.8 NE 11 17 6 9 1015.4 - 0.0
29/09:30am 26.2 27.6 18.7 63 4.8 ENE 9 17 5 9 1015.4 - 0.0
29/09:00am 26.5 27.8 18.5 61 5.1 NNE 9 15 5 8 1015.1 1015.0 0.0
29/08:30am 25.4 27.1 18.6 66 4.3 E 7 11 4 6 1014.8 - 0.0
29/08:00am 24.7 26.4 18.4 68 4.0 ESE 7 11 4 6 1014.7 - 0.0
29/07:30am 22.8 26.1 19.0 79 2.4 CALM 0 0 0 0 1014.4 - 0.0
29/07:00am 20.9 22.9 18.8 88 1.3 WNW 6 7 3 4 1014.1 - 0.0
29/06:30am 19.6 21.9 18.5 93 0.7 W 4 9 2 5 1013.8 - 0.0
29/06:00am 17.8 20.3 17.3 97 0.3 CALM 0 0 0 0 1013.5 1013.4 0.0
29/05:30am 18.3 19.8 17.6 96 0.4 WNW 6 7 3 4 1013.1 - 0.0
29/05:00am 18.3 20.9 17.5 95 0.5 CALM 0 6 0 3 1012.8 - 0.0
29/04:30am 19.2 21.0 18.2 94 0.6 W 6 7 3 4 1012.7 - 0.0
29/04:00am 19.7 20.8 17.9 89 1.1 SSE 9 13 5 7 1012.4 - 0.0
29/03:30am 19.4 21.1 18.1 92 0.8 S 6 9 3 5 1012.2 - 0.0
29/03:00am 19.3 22.1 18.0 92 0.8 CALM 0 7 0 4 1012.1 1012.0 0.0
29/02:30am 19.7 21.5 18.4 92 0.8 W 6 7 3 4 1012.2 - 0.0
29/02:00am 20.2 20.6 18.1 88 1.3 SSE 13 17 7 9 1012.6 - 0.0
29/01:30am 20.5 21.1 18.7 89 1.1 SE 13 17 7 9 1012.9 - 0.0
29/01:00am 19.6 22.5 18.3 92 0.8 CALM 0 0 0 0 1013.1 - 0.0
29/12:30am 19.3 22.3 18.5 95 0.5 CALM 0 2 0 1 1013.3 - 0.0
29/12:00am 19.4 22.5 18.6 95 0.5 CALM 0 0 0 0 1013.8 1013.7 0.0
 
Date/Time
EST
Temp
°C
App
Temp
°C
Dew
Point
Rel
Hum
%
Delta-T
°C
Wind Press
QNH
hPa
Press
MSL
hPa
Rain
since 9 am
mm
Dir
 
Spd
km/h
Gust
km/h
Spd
kts
Gust
kts
28/11:30pm 19.6 22.6 18.5 93 0.7 CALM 0 0 0 0 1014.3 - 0.0
28/11:00pm 20.0 23.1 18.6 92 0.9 CALM 0 0 0 0 1014.5 - 0.0
28/10:30pm 20.1 23.1 18.5 90 1.0 CALM 0 0 0 0 1014.6 - 0.0
28/10:00pm 21.9 24.1 19.1 84 1.8 W 6 7 3 4 1014.7 - 0.0
28/09:30pm 22.2 24.2 18.7 80 2.2 SSE 6 9 3 5 1014.6 - 0.0
28/09:00pm 22.6 24.1 18.8 79 2.4 S 9 13 5 7 1014.3 1014.2 0.0
28/08:30pm 22.0 25.0 19.2 84 1.8 WNW 2 7 1 4 1014.2 - 0.0
28/08:00pm 23.1 26.1 19.3 79 2.4 E 2 7 1 4 1013.8 - 0.0
28/07:30pm 23.8 25.3 18.9 74 3.1 WNW 9 13 5 7 1013.5 - 0.0
28/07:00pm 23.8 25.8 18.7 73 3.2 N 6 13 3 7 1013.2 - 0.0
28/06:30pm 24.2 25.3 18.8 72 3.4 N 11 15 6 8 1012.9 - 0.0
28/06:00pm 24.9 25.3 18.9 69 3.8 N 15 19 8 10 1012.7 1012.6 0.0
28/05:30pm 25.6 26.3 18.9 66 4.3 N 13 17 7 9 1012.5 - 0.0
28/05:00pm 26.0 26.6 18.6 63 4.7 NNE 13 19 7 10 1012.3 - 0.0
28/04:30pm 26.6 27.0 19.0 63 4.9 NNE 15 24 8 13 1012.2 - 0.0
28/04:00pm 26.7 27.1 19.1 63 4.9 NNE 15 22 8 12 1012.1 - 0.0
28/03:30pm 27.0 26.9 18.7 60 5.3 NNE 17 22 9 12 1012.3 - 0.0
28/03:00pm 27.5 27.3 18.6 58 5.7 NNE 17 28 9 15 1012.5 1012.4 0.0
28/02:30pm 26.9 26.8 18.8 61 5.2 NNE 17 24 9 13 1012.7 - 0.0
28/02:00pm 28.5 27.9 18.5 54 6.4 NNE 19 28 10 15 1012.8 - 0.0
28/01:30pm 28.5 27.6 18.2 53 6.6 N 20 26 11 14 1012.9 - 0.0
28/01:00pm 27.5 27.0 17.9 55 6.1 NE 17 24 9 13 1013.3 - 0.0
28/12:30pm 27.6 26.9 18.2 56 6.0 NNE 19 26 10 14 1013.6 - 0.0
28/12:00pm 27.5 26.6 18.2 57 5.9 NNE 20 30 11 16 1014.0 1013.9 0.0
28/11:30am 27.9 27.6 18.3 56 6.1 NNE 17 26 9 14 1014.2 - 0.0
28/11:00am 27.0 26.7 18.2 58 5.6 NE 17 24 9 13 1014.3 - 0.0
28/10:30am 28.1 27.6 17.7 53 6.6 NE 17 26 9 14 1014.5 - 0.0
28/10:00am 27.4 26.7 17.4 54 6.3 NE 17 22 9 12 1014.7 - 0.0
28/09:30am 26.1 27.3 17.3 58 5.5 NE 7 13 4 7 1015.1 - 0.0
28/09:00am 27.3 28.4 17.2 54 6.3 SE 7 15 4 8 1015.3 1015.2 0.0
28/08:30am 25.5 26.0 17.5 61 5.0 SE 11 17 6 9 1015.4 - 0.0
28/08:00am 25.2 25.2 17.3 61 4.9 SE 13 17 7 9 1015.2 - 0.0
28/07:30am 22.2 23.0 17.3 74 3.0 SE 9 15 5 8 1015.2 - 0.0
28/07:00am 21.2 23.8 17.6 80 2.2 CALM 0 0 0 0 1015.0 - 0.0
28/06:30am 20.2 21.6 17.9 87 1.4 W 7 7 4 4 1014.7 - 0.0
28/06:00am 20.0 19.3 17.4 85 1.6 SE 17 20 9 11 1014.3 1014.2 0.0
28/05:30am 20.2 19.1 17.3 83 1.8 SE 19 20 10 11 1014.1 - 0.0
28/05:00am 19.8 19.8 17.3 85 1.5 SE 13 17 7 9 1013.9 - 0.0
28/04:30am 20.7 20.6 17.8 83 1.8 SE 15 19 8 10 1013.8 - 0.0
28/04:00am 20.3 20.1 17.5 84 1.7 SE 15 17 8 9 1013.6 - 0.0
28/03:30am 20.5 19.5 17.6 83 1.8 SE 19 20 10 11 1013.6 - 0.0
28/03:00am 20.6 20.4 17.7 83 1.8 SE 15 17 8 9 1013.4 1013.3 0.0
28/02:30am 20.4 20.8 18.1 87 1.4 SE 13 15 7 8 1013.5 - 0.0
28/02:00am 21.0 21.4 18.1 83 1.8 SE 13 17 7 9 1013.4 - 0.0
28/01:30am 20.7 22.3 18.3 86 1.5 SE 7 9 4 5 1013.7 - 0.0
28/01:00am 20.3 23.3 18.4 89 1.2 CALM 0 0 0 0 1014.0 - 0.0
28/12:30am 20.1 23.0 18.3 89 1.1 CALM 0 6 0 3 1014.3 - 0.0
28/12:00am 19.8 22.4 18.3 91 0.9 WNW 2 6 1 3 1014.5 1014.4 0.0

Other Formats:

Comma delimited format used in spreadsheet applications
http://www.bom.gov.au/fwo/IDQ60801/IDQ60801.94287.axf

JavaScript Object Notation format (JSON) in row-major order
http://www.bom.gov.au/fwo/IDQ60801/IDQ60801.94287.json